<?xml version="1.0" encoding="UTF-8" ?>
<gpx xmlns="http://www.topografix.com/GPX/1/1" creator="4.2.4" version="1.1" xmlns:xsi="http://www.w3.org/2001/XMLSchema-instance" xsi:schemaLocation="http://www.topografix.com/GPX/1/1 http://www.topografix.com/GPX/1/1/gpx.xsd">
<metadata>
<name>Test</name>
</metadata>
 <trk>
  <trkseg>
   <trkpt lat="52.39475313" lon="13.52141737">
   <ele>56.0</ele>
   <time>2022-11-07T12:34:21Z</time>
   </trkpt>
   <trkpt lat="52.39679883" lon="13.51934636">
   <ele>57.6</ele>
   <time>2022-11-07T12:34:31Z</time>
   </trkpt>
   <trkpt lat="52.39748876" lon="13.51900477">
   <ele>56.0</ele>
   <time>2022-11-07T12:34:34Z</time>
   </trkpt>
   <trkpt lat="52.39798042" lon="13.51890112">
   <ele>55.3</ele>
   <time>2022-11-07T12:34:35Z</time>
   </trkpt>
   <trkpt lat="52.39846555" lon="13.51891362">
   <ele>53.9</ele>
   <time>2022-11-07T12:34:37Z</time>
   </trkpt>
   <trkpt lat="52.39938451" lon="13.51927280">
   <ele>52.5</ele>
   <time>2022-11-07T12:34:41Z</time>
   </trkpt>
   <trkpt lat="52.40160275" lon="13.52069806">
   <ele>47.2</ele>
   <time>2022-11-07T12:34:52Z</time>
   </trkpt>
   <trkpt lat="52.40310454" lon="13.52103387">
   <ele>45.7</ele>
   <time>2022-11-07T12:34:59Z</time>
   </trkpt>
   <trkpt lat="52.40546071" lon="13.52117984">
   <ele>54.0</ele>
   <time>2022-11-07T12:35:11Z</time>
   </trkpt>
   <trkpt lat="52.40777261" lon="13.52239243">
   <ele>44.6</ele>
   <time>2022-11-07T12:35:21Z</time>
   </trkpt>
   <trkpt lat="52.41007830" lon="13.52339799">
   <ele>46.0</ele>
   <time>2022-11-07T12:35:32Z</time>
   </trkpt>
   <trkpt lat="52.41239646" lon="13.52386079">
   <ele>44.6</ele>
   <time>2022-11-07T12:35:44Z</time>
   </trkpt>
   <trkpt lat="52.42111323" lon="13.52205039">
   <ele>43.8</ele>
   <time>2022-11-07T12:36:25Z</time>
   </trkpt>
   <trkpt lat="52.42344370" lon="13.52208299">
   <ele>42.7</ele>
   <time>2022-11-07T12:36:35Z</time>
   </trkpt>
   <trkpt lat="52.42451869" lon="13.52184404">
   <ele>46.2</ele>
   <time>2022-11-07T12:36:39Z</time>
   </trkpt>
   <trkpt lat="52.42553286" lon="13.52132143">
   <ele>47.1</ele>
   <time>2022-11-07T12:36:44Z</time>
   </trkpt>
   <trkpt lat="52.42629549" lon="13.52061160">
   <ele>46.1</ele>
   <time>2022-11-07T12:36:48Z</time>
   </trkpt>
   <trkpt lat="52.42679692" lon="13.51992621">
   <ele>45.3</ele>
   <time>2022-11-07T12:36:51Z</time>
   </trkpt>
   <trkpt lat="52.42746518" lon="13.51854697">
   <ele>44.9</ele>
   <time>2022-11-07T12:36:56Z</time>
   </trkpt>
   <trkpt lat="52.42792589" lon="13.51672524">
   <ele>44.5</ele>
   <time>2022-11-07T12:37:01Z</time>
   </trkpt>
   <trkpt lat="52.42837397" lon="13.51268135">
   <ele>42.5</ele>
   <time>2022-11-07T12:37:09Z</time>
   </trkpt>
   <trkpt lat="52.42882808" lon="13.50979768">
   <ele>41.0</ele>
   <time>2022-11-07T12:37:16Z</time>
   </trkpt>
   <trkpt lat="52.42983415" lon="13.50646656">
   <ele>39.1</ele>
   <time>2022-11-07T12:37:25Z</time>
   </trkpt>
   <trkpt lat="52.43124395" lon="13.50351771">
   <ele>38.3</ele>
   <time>2022-11-07T12:37:34Z</time>
   </trkpt>
   <trkpt lat="52.43275426" lon="13.50065134">
   <ele>36.7</ele>
   <time>2022-11-07T12:37:44Z</time>
   </trkpt>
   <trkpt lat="52.43391120" lon="13.49831852">
   <ele>42.9</ele>
   <time>2022-11-07T12:38:22Z</time>
   </trkpt>
   <trkpt lat="52.43391280" lon="13.49824965">
   <ele>43.0</ele>
   <time>2022-11-07T12:38:23Z</time>
   </trkpt>
   <trkpt lat="52.43389499" lon="13.49818104">
   <ele>43.0</ele>
   <time>2022-11-07T12:38:24Z</time>
   </trkpt>
   <trkpt lat="52.43385703" lon="13.49810568">
   <ele>43.3</ele>
   <time>2022-11-07T12:38:25Z</time>
   </trkpt>
   <trkpt lat="52.43358510" lon="13.49765745">
   <ele>43.5</ele>
   <time>2022-11-07T12:38:28Z</time>
   </trkpt>
   <trkpt lat="52.43173626" lon="13.49527261">
   <ele>36.0</ele>
   <time>2022-11-07T12:39:11Z</time>
   </trkpt>
   <trkpt lat="52.42988881" lon="13.49286321">
   <ele>37.2</ele>
   <time>2022-11-07T12:39:27Z</time>
   </trkpt>
   <trkpt lat="52.42806067" lon="13.49049353">
   <ele>37.4</ele>
   <time>2022-11-07T12:39:45Z</time>
   </trkpt>
   <trkpt lat="52.42621738" lon="13.48810441">
   <ele>38.2</ele>
   <time>2022-11-07T12:40:11Z</time>
   </trkpt>
   <trkpt lat="52.42445469" lon="13.48576207">
   <ele>38.9</ele>
   <time>2022-11-07T12:40:34Z</time>
   </trkpt>
   <trkpt lat="52.42432960" lon="13.48553006">
   <ele>38.6</ele>
   <time>2022-11-07T12:40:39Z</time>
   </trkpt>
   <trkpt lat="52.42435245" lon="13.48544900">
   <ele>39.1</ele>
   <time>2022-11-07T12:40:40Z</time>
   </trkpt>
   <trkpt lat="52.42439004" lon="13.48537095">
   <ele>38.7</ele>
   <time>2022-11-07T12:40:41Z</time>
   </trkpt>
   <trkpt lat="52.42614813" lon="13.48290769">
   <ele>39.9</ele>
   <time>2022-11-07T12:41:16Z</time>
   </trkpt>
   <trkpt lat="52.42625062" lon="13.48267769">
   <ele>39.5</ele>
   <time>2022-11-07T12:41:21Z</time>
   </trkpt>
   <trkpt lat="52.42623807" lon="13.48257230">
   <ele>39.1</ele>
   <time>2022-11-07T12:41:22Z</time>
   </trkpt>
   <trkpt lat="52.42616351" lon="13.48242583">
   <ele>39.0</ele>
   <time>2022-11-07T12:41:25Z</time>
   </trkpt>
   <trkpt lat="52.42610780" lon="13.48234086">
   <ele>39.7</ele>
   <time>2022-11-07T12:41:27Z</time>
   </trkpt>
   <trkpt lat="52.42602079" lon="13.48228467">
   <ele>40.6</ele>
   <time>2022-11-07T12:41:30Z</time>
   </trkpt>
   <trkpt lat="52.42575829" lon="13.48226085">
   <ele>39.2</ele>
   <time>2022-11-07T12:46:55Z</time>
   </trkpt>
   <trkpt lat="52.42544353" lon="13.48229439">
   <ele>39.1</ele>
   <time>2022-11-07T12:47:07Z</time>
   </trkpt>
   <trkpt lat="52.42549317" lon="13.48253679">
   <ele>39.5</ele>
   <time>2022-11-07T12:47:08Z</time>
   </trkpt>
   <trkpt lat="52.42551368" lon="13.48272185">
   <ele>39.5</ele>
   <time>2022-11-07T12:47:09Z</time>
   </trkpt>
   <trkpt lat="52.42554884" lon="13.48286488">
   <ele>39.3</ele>
   <time>2022-11-07T12:47:11Z</time>
   </trkpt>
   <trkpt lat="52.42564633" lon="13.48313427">
   <ele>39.0</ele>
   <time>2022-11-07T12:47:15Z</time>
   </trkpt>
   <trkpt lat="52.42568050" lon="13.48324185">
   <ele>38.7</ele>
   <time>2022-11-07T12:47:17Z</time>
   </trkpt>
   <trkpt lat="52.42554915" lon="13.48342809">
   <ele>38.5</ele>
   <time>2022-11-07T12:47:18Z</time>
   </trkpt>
   <trkpt lat="52.42411085" lon="13.48534459">
   <ele>39.4</ele>
   <time>2022-11-07T12:48:06Z</time>
   </trkpt>
   <trkpt lat="52.42403129" lon="13.48522846">
   <ele>39.4</ele>
   <time>2022-11-07T12:48:07Z</time>
   </trkpt>
   <trkpt lat="52.42223683" lon="13.48294298">
   <ele>40.2</ele>
   <time>2022-11-07T12:48:39Z</time>
   </trkpt>
   <trkpt lat="52.42046983" lon="13.48063867">
   <ele>42.4</ele>
   <time>2022-11-07T12:49:02Z</time>
   </trkpt>
   <trkpt lat="52.41921500" lon="13.47925900">
   <ele>44.7</ele>
   <time>2022-11-07T12:49:16Z</time>
   </trkpt>
   <trkpt lat="52.41919920" lon="13.47926101">
   <ele>44.5</ele>
   <time>2022-11-07T12:49:16Z</time>
   </trkpt>
   <trkpt lat="52.41910274" lon="13.47940688">
   <ele>44.5</ele>
   <time>2022-11-07T12:49:17Z</time>
   </trkpt>
   <trkpt lat="52.41795290" lon="13.48263486">
   <ele>42.4</ele>
   <time>2022-11-07T12:49:46Z</time>
   </trkpt>
   <trkpt lat="52.41678722" lon="13.48585675">
   <ele>41.7</ele>
   <time>2022-11-07T12:50:16Z</time>
   </trkpt>
  </trkseg>
 </trk>
</gpx>